createdAt,value
2022-09-23T00:00:07.036Z,4.07
2022-09-23T00:05:14.747Z,4.02
2022-09-23T00:10:22.667Z,4.01
2022-09-23T00:15:28.951Z,3.94
2022-09-23T00:20:36.104Z,3.88
2022-09-23T00:25:45.116Z,3.86
2022-09-23T00:30:52.606Z,4.33
2022-09-23T00:36:00.002Z,4.66
2022-09-23T00:41:07.752Z,4.78
2022-09-23T00:46:15.283Z,4.65
2022-09-23T00:51:21.867Z,4.29
2022-09-23T00:56:29.619Z,3.94
2022-09-23T01:01:37.818Z,3.62
2022-09-23T01:06:44.732Z,3.4
2022-09-23T01:11:53.563Z,3.47
2022-09-23T01:17:01.669Z,3.6
2022-09-23T01:22:08.661Z,3.44
2022-09-23T01:27:15.506Z,3.35
2022-09-23T01:32:23.333Z,3.16
2022-09-23T01:37:40.328Z,3.07
2022-09-23T01:42:47.774Z,3.12
2022-09-23T01:47:56.268Z,3.16
2022-09-23T01:53:04.784Z,3.02
2022-09-23T01:58:12.122Z,2.99
2022-09-23T02:03:20.093Z,3.0
2022-09-23T02:08:28.470Z,2.86
2022-09-23T02:13:35.670Z,2.83
2022-09-23T02:18:44.043Z,2.94
2022-09-23T02:23:51.323Z,3.01
2022-09-23T02:28:59.075Z,3.04
2022-09-23T02:34:08.055Z,2.96
2022-09-23T02:39:17.017Z,2.88
2022-09-23T02:44:24.748Z,2.76
2022-09-23T02:49:40.744Z,2.76
2022-09-23T02:54:47.941Z,2.62
2022-09-23T02:59:55.767Z,2.52
2022-09-23T03:05:03.669Z,2.54
2022-09-23T03:10:11.452Z,2.55
2022-09-23T03:15:19.289Z,2.54
2022-09-23T03:20:27.447Z,2.47
2022-09-23T03:25:37.363Z,2.6
2022-09-23T03:30:45.324Z,2.56
2022-09-23T03:35:52.129Z,2.66
2022-09-23T03:41:00.407Z,2.64
2022-09-23T03:46:09.152Z,2.49
2022-09-23T03:51:17.369Z,2.39
2022-09-23T03:56:24.589Z,2.27
2022-09-23T04:01:32.538Z,2.34
2022-09-23T04:06:39.670Z,2.5
2022-09-23T04:11:46.868Z,2.81
2022-09-23T04:17:03.335Z,2.72
2022-09-23T04:22:10.811Z,2.52
2022-09-23T04:27:18.262Z,2.51
2022-09-23T04:32:25.216Z,2.38
2022-09-23T04:37:33.013Z,2.38
2022-09-23T04:42:41.467Z,2.47
2022-09-23T04:47:48.910Z,2.62
2022-09-23T04:52:56.578Z,2.44
2022-09-23T04:58:03.130Z,2.36
2022-09-23T05:03:11.365Z,2.42
2022-09-23T05:08:20.069Z,2.44
2022-09-23T05:13:28.457Z,2.4
2022-09-23T05:18:35.818Z,2.62
2022-09-23T05:23:44.195Z,2.79
2022-09-23T05:28:52.601Z,2.72
2022-09-23T05:34:00.574Z,2.88
2022-09-23T05:39:08.360Z,2.97
2022-09-23T05:44:15.791Z,3.03
2022-09-23T05:49:25.048Z,3.16
2022-09-23T05:54:33.373Z,3.34
2022-09-23T05:59:40.767Z,3.46
2022-09-23T06:04:48.371Z,3.52
2022-09-23T06:09:57.777Z,4.01
2022-09-23T06:15:06.362Z,5.93
2022-09-23T06:20:14.335Z,7.34
2022-09-23T06:25:22.539Z,8.01
2022-09-23T06:30:32.259Z,8.46
2022-09-23T06:35:39.193Z,8.72
2022-09-23T06:40:47.024Z,8.71
2022-09-23T06:45:54.818Z,8.84
2022-09-23T06:51:02.864Z,9.01
2022-09-23T06:56:11.884Z,9.65
2022-09-23T07:01:18.991Z,9.8
2022-09-23T07:06:26.337Z,10.0
2022-09-23T07:11:34.243Z,10.42
2022-09-23T07:16:41.215Z,10.72
2022-09-23T07:21:48.941Z,10.99
2022-09-23T07:26:56.871Z,11.16
2022-09-23T07:32:04.309Z,11.38
2022-09-23T07:37:11.966Z,11.75
2022-09-23T07:42:19.768Z,11.72
2022-09-23T07:47:26.315Z,11.8
2022-09-23T07:52:34.242Z,11.99
2022-09-23T07:57:42.510Z,12.29
2022-09-23T08:02:50.639Z,12.54
2022-09-23T08:07:57.974Z,12.66
2022-09-23T08:13:06.068Z,12.82
2022-09-23T08:18:14.426Z,13.13
2022-09-23T08:23:22.376Z,13.3
2022-09-23T08:28:30.586Z,13.76
2022-09-23T08:33:38.827Z,14.02
2022-09-23T08:38:46.669Z,14.2
2022-09-23T08:43:54.340Z,14.62
2022-09-23T08:49:01.750Z,14.68
2022-09-23T08:54:09.386Z,14.79
2022-09-23T08:59:16.784Z,14.94
2022-09-23T09:04:24.064Z,14.96
2022-09-23T09:09:31.241Z,15.13
2022-09-23T09:14:38.977Z,15.06
2022-09-23T09:19:46.827Z,15.39
2022-09-23T09:24:56.335Z,15.55
2022-09-23T09:30:04.182Z,15.66
2022-09-23T09:35:12.189Z,15.66
2022-09-23T09:40:19.530Z,15.92
2022-09-23T09:45:27.657Z,16.17
2022-09-23T09:50:36.048Z,16.33
2022-09-23T09:55:43.673Z,16.47
2022-09-23T10:00:52.344Z,16.88
2022-09-23T10:06:00.118Z,16.83
2022-09-23T10:11:07.837Z,16.86
2022-09-23T10:16:16.124Z,17.08
2022-09-23T10:21:25.018Z,17.03
2022-09-23T10:26:32.520Z,16.98
2022-09-23T10:31:40.082Z,17.42
2022-09-23T10:36:48.085Z,17.6
2022-09-23T10:41:54.757Z,17.52
2022-09-23T10:47:01.323Z,17.57
2022-09-23T10:52:09.281Z,18.2
2022-09-23T10:57:16.480Z,18.22
2022-09-23T11:02:25.235Z,18.4
2022-09-23T11:07:33.330Z,18.35
2022-09-23T11:12:39.903Z,18.94
2022-09-23T11:17:47.741Z,18.88
2022-09-23T11:22:55.513Z,19.16
2022-09-23T11:28:03.374Z,19.56
2022-09-23T11:33:11.260Z,19.88
2022-09-23T11:38:19.712Z,19.66
2022-09-23T11:43:27.768Z,19.75
2022-09-23T11:48:34.835Z,19.78
2022-09-23T11:53:42.849Z,20.38
2022-09-23T11:58:50.472Z,20.66
2022-09-23T12:03:59.704Z,21.03
2022-09-23T12:09:07.489Z,21.51
2022-09-23T12:14:13.993Z,22.22
2022-09-23T12:19:22.527Z,22.49
2022-09-23T12:24:31.543Z,23.0
2022-09-23T12:29:42.271Z,23.56
2022-09-23T12:34:49.877Z,24.57
2022-09-23T12:39:56.385Z,24.6
2022-09-23T12:45:05.182Z,24.58
2022-09-23T12:50:12.725Z,24.52
2022-09-23T12:55:21.702Z,25.38
2022-09-23T13:00:29.397Z,23.99
2022-09-23T13:05:37.560Z,25.89
2022-09-23T13:10:44.762Z,25.48
2022-09-23T13:15:52.244Z,25.44
2022-09-23T13:20:59.174Z,25.36
2022-09-23T13:26:07.173Z,25.43
2022-09-23T13:31:15.438Z,25.76
2022-09-23T13:36:23.780Z,26.31
2022-09-23T13:41:31.630Z,26.52
2022-09-23T13:46:39.026Z,26.06
2022-09-23T13:51:47.184Z,25.78
2022-09-23T13:56:54.684Z,25.86
2022-09-23T14:02:02.617Z,26.02
2022-09-23T14:07:09.743Z,26.7
2022-09-23T14:12:18.027Z,27.4
2022-09-23T14:17:25.976Z,26.84
2022-09-23T14:22:32.521Z,26.51
2022-09-23T14:27:40.899Z,26.56
2022-09-23T14:32:47.898Z,25.52
2022-09-23T14:37:56.205Z,24.85
2022-09-23T14:43:04.607Z,24.76
2022-09-23T14:48:12.143Z,24.75
2022-09-23T14:53:19.021Z,25.22
2022-09-23T14:58:26.648Z,24.78
2022-09-23T15:03:33.415Z,24.38
2022-09-23T15:08:41.836Z,23.72
2022-09-23T15:13:50.725Z,23.48
2022-09-23T15:18:59.585Z,22.52
2022-09-23T15:24:06.654Z,22.12
2022-09-23T15:29:13.857Z,21.08
2022-09-23T15:34:21.049Z,19.52
2022-09-23T15:39:28.482Z,18.6
2022-09-23T15:44:36.779Z,17.44
2022-09-23T15:49:44.935Z,17.04
2022-09-23T15:54:52.829Z,16.54
2022-09-23T15:59:59.614Z,15.63
2022-09-23T16:05:07.068Z,14.99
2022-09-23T16:10:14.598Z,14.46
2022-09-23T16:15:21.678Z,14.06
2022-09-23T16:20:27.809Z,13.78
2022-09-23T16:25:35.622Z,13.44
2022-09-23T16:30:43.096Z,13.03
2022-09-23T16:35:50.656Z,12.62
2022-09-23T16:40:58.499Z,12.13
2022-09-23T16:46:06.341Z,11.49
2022-09-23T16:51:14.554Z,11.02
2022-09-23T16:56:22.076Z,10.49
2022-09-23T17:01:30.581Z,9.86
2022-09-23T17:06:37.705Z,9.42
2022-09-23T17:11:50.029Z,9.01
2022-09-23T17:16:57.219Z,8.6
2022-09-23T17:22:05.219Z,8.32
2022-09-23T17:27:12.273Z,8.26
2022-09-23T17:32:19.468Z,8.03
2022-09-23T17:37:27.317Z,7.92
2022-09-23T17:42:35.139Z,7.9
2022-09-23T17:47:42.337Z,7.82
2022-09-23T17:52:49.747Z,7.74
2022-09-23T17:57:56.755Z,7.7
2022-09-23T18:03:04.774Z,7.67
2022-09-23T18:08:12.542Z,7.54
2022-09-23T18:13:19.627Z,7.33
2022-09-23T18:18:28.009Z,7.18
2022-09-23T18:23:35.992Z,7.02
2022-09-23T18:28:44.181Z,7.03
2022-09-23T18:33:50.985Z,6.85
2022-09-23T18:38:58.921Z,6.79
2022-09-23T18:44:06.618Z,6.62
2022-09-23T18:49:13.943Z,6.56
2022-09-23T18:54:22.888Z,6.44
2022-09-23T18:59:30.196Z,6.32
2022-09-23T19:04:37.432Z,6.22
2022-09-23T19:09:45.136Z,6.2
2022-09-23T19:14:53.118Z,6.12
2022-09-23T19:20:00.913Z,6.1
2022-09-23T19:25:09.326Z,5.96
2022-09-23T19:30:17.283Z,5.85
2022-09-23T19:35:25.438Z,5.68
2022-09-23T19:40:39.312Z,5.6
2022-09-23T19:45:48.433Z,5.52
2022-09-23T19:51:17.758Z,5.54
2022-09-23T19:56:25.920Z,5.42
2022-09-23T20:01:32.480Z,5.22
2022-09-23T20:06:39.681Z,5.26
2022-09-23T20:11:48.393Z,5.17
2022-09-23T20:16:56.723Z,5.22
2022-09-23T20:22:04.440Z,5.2
2022-09-23T20:27:11.636Z,5.17
2022-09-23T20:32:18.908Z,5.16
2022-09-23T20:37:27.849Z,5.23
2022-09-23T20:42:36.373Z,5.18
2022-09-23T20:47:43.666Z,5.02
2022-09-23T20:53:06.134Z,4.9
2022-09-23T20:58:13.630Z,4.98
2022-09-23T21:03:20.756Z,4.89
2022-09-23T21:08:29.428Z,4.83
2022-09-23T21:13:36.918Z,4.73
2022-09-23T21:18:45.151Z,4.68
2022-09-23T21:23:52.612Z,4.65
2022-09-23T21:29:00.967Z,4.56
2022-09-23T21:34:09.774Z,4.44
2022-09-23T21:39:17.376Z,4.4
2022-09-23T21:44:24.594Z,4.38
2022-09-23T21:49:33.087Z,4.4
2022-09-23T21:54:41.437Z,4.38
2022-09-23T21:59:49.069Z,4.4
2022-09-23T22:05:03.370Z,4.39
2022-09-23T22:10:11.399Z,4.38
2022-09-23T22:15:17.382Z,4.34
2022-09-23T22:20:25.698Z,4.32
2022-09-23T22:25:33.678Z,4.19
2022-09-23T22:30:41.950Z,4.18
2022-09-23T22:35:49.439Z,4.16
2022-09-23T22:40:56.315Z,4.16
2022-09-23T22:46:06.868Z,4.1
2022-09-23T22:51:15.466Z,4.01
2022-09-23T22:56:22.672Z,3.94
2022-09-23T23:01:31.220Z,3.94
2022-09-23T23:06:40.079Z,3.93
2022-09-23T23:11:46.831Z,3.88
2022-09-23T23:16:54.194Z,3.8
2022-09-23T23:22:01.968Z,3.78
2022-09-23T23:27:10.208Z,3.72
2022-09-23T23:32:18.717Z,3.66
2022-09-23T23:37:26.636Z,3.66
2022-09-23T23:42:34.515Z,3.57
2022-09-23T23:47:42.302Z,3.65
2022-09-23T23:52:50.549Z,3.76
2022-09-23T23:57:57.408Z,3.76
